Latest Weather Observations for Mareeba

IDQ60801

Issued at 12:02 pm EST Wednesday 24 May 2017 (issued every 30 minutes, with the page automatically refreshed every 10 minutes)

About weather observations | Map of weather stations | Latest weather observations for QLD | Other Formats
Station Details ID: 031210 Name: MAREEBA AIRPORT Lat: -17.07 Lon: 145.43 Height: 471.93 m
Data from the previous 72 hours. | See also: Recent months at Mareeba
Date/Time
EST
Temp
°C
App
Temp
°C
Dew
Point
°C
Rel
Hum
%
Delta-T
°C
Wind Press
QNH
hPa
Press
MSL
hPa
Rain since
9am
mm
Dir  Spd
km/h
Gust
km/h
Spd
kts
Gust
kts
24/12:00pm 25.4 25.8 16.3 57 5.7 ESE 9 17 5 9 1018.4 1016.1 0.0
24/11:30am 25.4 24.4 16.5 58 5.6 ESE 17 28 9 15 1018.9 - 0.0
24/11:00am 24.4 22.5 15.1 56 5.7 E 19 28 10 15 1019.5 - 0.0
24/10:30am 23.8 21.0 15.3 59 5.2 ESE 24 33 13 18 1019.9 - 0.0
24/10:00am 24.1 21.4 15.6 59 5.2 ESE 24 35 13 19 1019.9 - 0.0
24/09:30am 23.9 20.5 15.9 61 4.9 ESE 28 39 15 21 1019.6 - 0.0
24/09:00am 22.8 20.5 15.6 64 4.4 ESE 22 28 12 15 1019.6 1017.4 0.0
24/08:30am 22.4 20.7 15.7 66 4.1 SE 19 24 10 13 1019.3 - 0.0
24/08:00am 21.7 20.5 16.2 71 3.4 SE 17 26 9 14 1019.0 - 0.0
24/07:30am 21.3 19.7 16.5 74 3.0 ESE 20 30 11 16 1018.6 - 0.0
24/07:00am 20.9 19.8 16.3 75 2.8 SE 17 20 9 11 1018.3 - 0.0
24/06:30am 20.7 19.6 16.3 76 2.7 SE 17 26 9 14 1017.8 - 0.0
24/06:00am 20.9 19.5 16.5 76 2.7 ESE 19 26 10 14 1017.6 1015.3 0.0
24/05:30am 21.2 19.3 16.8 76 2.7 ESE 22 33 12 18 1017.4 - 0.0
24/05:00am 21.0 19.3 17.2 79 2.4 ESE 22 30 12 16 1017.0 - 0.0
24/04:30am 21.1 20.4 17.3 79 2.4 SE 17 24 9 13 1016.7 - 0.0
24/04:00am 21.2 20.0 17.4 79 2.4 SSE 20 30 11 16 1016.5 - 0.0
24/03:30am 21.4 19.9 17.6 79 2.4 SSE 22 32 12 17 1016.5 - 0.0
24/03:00am 21.0 19.9 17.8 82 2.0 SE 20 30 11 16 1016.5 1014.2 0.0
24/02:30am 21.2 20.1 17.2 78 2.5 SE 19 26 10 14 1016.7 - 0.0
24/02:00am 21.6 19.5 17.2 76 2.8 SE 24 33 13 18 1016.8 - 0.0
24/01:30am 21.5 20.3 17.1 76 2.7 SE 19 26 10 14 1016.9 - 0.0
24/01:00am 21.0 21.3 18.0 83 1.9 SE 13 20 7 11 1017.1 - 0.0
24/12:30am 21.4 20.7 18.2 82 2.0 SE 19 30 10 16 1017.4 - 0.0
24/12:00am 21.2 20.9 18.2 83 1.9 SSE 17 22 9 12 1017.7 1015.4 0.0
 
Date/Time
EST
Temp
°C
App
Temp
°C
Dew
Point
°C
Rel
Hum
%
Delta-T
°C
Wind Press
QNH
hPa
Press
MSL
hPa
Rain since
9am
mm
Dir  Spd
km/h
Gust
km/h
Spd
kts
Gust
kts
23/11:30pm 21.2 21.2 18.2 83 1.9 SSE 15 22 8 12 1018.0 - 0.0
23/11:00pm 20.6 21.0 18.2 86 1.5 SSE 13 15 7 8 1018.0 - 0.0
23/10:30pm 21.0 20.8 18.6 86 1.5 SE 17 24 9 13 1018.1 - 0.0
23/10:00pm 21.0 21.1 19.1 89 1.2 SSE 17 22 9 12 1018.2 - 0.0
23/09:30pm 21.1 21.2 19.2 89 1.2 SSE 17 22 9 12 1018.2 - 0.0
23/09:00pm 21.8 22.2 19.0 84 1.8 SSE 15 19 8 10 1018.0 1015.7 0.0
23/08:30pm 21.4 21.8 19.1 87 1.5 S 15 20 8 11 1017.8 - 0.0
23/08:00pm 22.1 22.4 18.7 81 2.2 SSE 15 24 8 13 1017.4 - 0.0
23/07:30pm 22.1 21.8 18.3 79 2.4 SE 17 26 9 14 1017.0 - 0.0
23/07:00pm 22.5 22.9 18.1 76 2.8 SSE 13 17 7 9 1016.7 - 0.0
23/06:30pm 22.8 22.7 17.9 74 3.1 SSE 15 20 8 11 1016.3 - 0.0
23/06:00pm 23.8 23.8 17.1 66 4.2 SE 13 17 7 9 1016.1 1013.8 0.0
23/05:30pm 24.8 24.7 17.0 62 4.9 SE 13 19 7 10 1015.9 - 0.0
23/05:00pm 25.8 26.3 16.6 56 5.8 ENE 9 15 5 8 1015.5 - 0.0
23/04:30pm 26.5 26.0 15.8 51 6.7 ENE 13 20 7 11 1015.1 - 0.0
23/04:00pm 26.7 26.4 15.4 50 7.0 NE 11 17 6 9 1015.1 - 0.0
23/03:30pm 27.5 26.7 15.2 47 7.6 E 13 20 7 11 1015.0 - 0.0
23/03:00pm 27.2 25.3 14.2 44 7.9 E 17 28 9 15 1015.0 1012.7 0.0
23/02:30pm 27.8 26.1 13.7 42 8.5 ENE 15 26 8 14 1015.1 - 0.0
23/02:00pm 28.2 26.3 15.8 47 7.8 SE 20 30 11 16 1015.2 - 0.0
23/01:30pm 27.1 26.1 15.5 49 7.2 ESE 15 22 8 12 1015.6 - 0.0
23/01:00pm 27.6 25.0 14.9 45 7.8 SE 22 33 12 18 1016.2 - 0.0
23/12:30pm 27.6 25.8 15.9 49 7.3 SE 20 33 11 18 1016.4 - 0.0
23/12:00pm 26.7 26.5 17.5 57 5.9 SE 15 22 8 12 1016.9 1014.6 0.0
23/11:30am 25.9 26.8 17.5 59 5.4 SSE 9 17 5 9 1017.4 - 0.0
23/11:00am 24.8 26.1 18.5 68 4.1 S 9 13 5 7 1018.0 - 0.0
23/10:30am 24.1 24.3 18.5 71 3.6 SSE 15 20 8 11 1018.3 - 0.0
23/10:00am 23.8 25.4 18.2 71 3.6 E 7 13 4 7 1018.4 - 0.0
23/09:30am 23.0 24.9 17.7 72 3.4 NE 4 9 2 5 1018.3 - 0.0
23/09:00am 22.9 25.3 18.0 74 3.1 S 2 9 1 5 1018.3 1016.0 0.0
23/08:30am 22.2 24.9 17.8 76 2.8 CALM 0 0 0 0 1018.2 - 0.0
23/08:00am 20.5 23.1 17.5 83 1.9 CALM 0 0 0 0 1018.1 - 0.0
23/07:30am 18.5 20.7 16.5 88 1.2 CALM 0 0 0 0 1017.8 - 0.0
23/07:00am 17.4 19.2 15.6 89 1.1 CALM 0 0 0 0 1017.3 - 0.0
23/06:30am 18.8 19.5 16.2 85 1.6 E 7 11 4 6 1017.0 - 0.0
23/06:00am 20.1 19.3 17.1 83 1.9 SE 17 24 9 13 1016.7 1014.4 0.0
23/05:30am 19.9 18.7 17.1 84 1.7 SE 19 26 10 14 1016.3 - 0.0
23/05:00am 20.2 18.9 17.2 83 1.9 SE 20 30 11 16 1016.2 - 0.0
23/04:30am 20.4 19.4 17.6 84 1.8 SE 19 26 10 14 1016.2 - 0.0
23/04:00am 20.2 19.4 17.2 83 1.9 SE 17 24 9 13 1016.2 - 0.0
23/03:30am 19.9 20.0 17.5 86 1.5 SE 13 19 7 10 1016.1 - 0.0
23/03:00am 20.0 19.5 17.0 83 1.9 SE 15 20 8 11 1016.3 1014.0 0.0
23/02:30am 20.2 19.0 17.0 82 2.0 SE 19 28 10 15 1016.4 - 0.0
23/02:00am 20.1 19.4 17.3 84 1.7 SE 17 22 9 12 1016.5 - 0.0
23/01:30am 19.9 18.8 17.3 85 1.6 SE 19 28 10 15 1016.8 - 0.0
23/01:00am 19.8 19.3 17.0 84 1.7 SE 15 19 8 10 1017.1 - 0.0
23/12:30am 19.8 19.4 17.2 85 1.6 SE 15 20 8 11 1017.6 - 0.0
23/12:00am 19.8 19.3 17.0 84 1.7 SE 15 24 8 13 1017.7 1015.4 0.0
 
Date/Time
EST
Temp
°C
App
Temp
°C
Dew
Point
°C
Rel
Hum
%
Delta-T
°C
Wind Press
QNH
hPa
Press
MSL
hPa
Rain since
9am
mm
Dir  Spd
km/h
Gust
km/h
Spd
kts
Gust
kts
22/11:30pm 19.8 18.5 16.8 83 1.9 SE 19 26 10 14 1017.8 - 0.0
22/11:00pm 19.6 19.1 16.8 84 1.7 SE 15 20 8 11 1018.1 - 0.0
22/10:30pm 19.5 18.8 16.5 83 1.8 SSE 15 19 8 10 1018.2 - 0.0
22/10:00pm 19.5 18.8 16.3 82 2.0 SE 15 20 8 11 1018.2 - 0.0
22/09:30pm 19.7 18.0 16.2 80 2.1 SE 20 30 11 16 1018.2 - 0.0
22/09:00pm 19.6 19.2 16.3 81 2.0 SSE 13 20 7 11 1018.1 1015.8 0.0
22/08:30pm 19.8 19.4 16.3 80 2.1 SSE 13 17 7 9 1018.0 - 0.0
22/08:00pm 20.1 19.7 16.3 79 2.3 SSE 13 20 7 11 1017.8 - 0.0
22/07:30pm 20.3 19.9 16.1 77 2.6 S 13 17 7 9 1017.4 - 0.0
22/07:00pm 20.8 20.6 15.8 73 3.0 SSE 11 17 6 9 1016.9 - 0.0
22/06:30pm 21.8 20.9 14.9 65 4.2 SE 13 17 7 9 1016.5 - 0.0
22/06:00pm 23.2 21.8 13.4 54 5.8 ESE 13 20 7 11 1016.1 1013.8 0.0
22/05:30pm 24.3 21.3 12.6 48 6.9 SE 20 26 11 14 1015.9 - 0.0
22/05:00pm 25.3 21.9 11.1 41 8.2 SE 20 30 11 16 1015.6 - 0.0
22/04:30pm 26.2 22.6 10.4 37 9.0 SE 20 28 11 15 1015.2 - 0.0
22/04:00pm 26.9 23.6 11.0 37 9.2 ESE 19 26 10 14 1015.1 - 0.0
22/03:30pm 27.3 24.5 11.3 37 9.3 SSE 17 24 9 13 1014.9 - 0.0
22/03:00pm 27.3 24.0 11.7 37 9.1 SSE 20 26 11 14 1014.9 1012.6 0.0
22/02:30pm 27.4 24.0 11.4 37 9.3 ESE 20 26 11 14 1015.0 - 0.0
22/02:00pm 27.6 24.6 12.4 39 9.0 ESE 20 30 11 16 1015.2 - 0.0
22/01:30pm 27.4 23.8 11.8 38 9.2 SE 22 33 12 18 1015.6 - 0.0
22/01:00pm 26.8 24.0 13.2 43 8.1 SE 20 30 11 16 1016.0 - 0.0
22/12:30pm 26.7 22.4 12.0 40 8.6 SE 26 33 14 18 1016.5 - 0.0
22/12:00pm 26.5 23.0 13.3 44 7.9 SSE 24 33 13 18 1016.9 1014.6 0.0
22/11:30am 25.9 23.2 14.7 50 6.8 SSE 22 30 12 16 1017.3 - 0.0
22/11:00am 25.5 23.1 15.5 54 6.2 SSE 22 32 12 17 1017.9 - 0.0
22/10:30am 24.7 22.3 15.3 56 5.8 SSE 22 30 12 16 1018.3 - 0.0
22/10:00am 24.3 22.1 16.0 60 5.1 SE 22 32 12 17 1018.5 - 0.0
22/09:30am 23.5 21.1 16.3 64 4.5 ESE 24 32 13 17 1018.5 - 0.0
22/09:00am 22.5 20.9 16.1 67 3.9 ESE 19 30 10 16 1018.4 1016.1 0.0
22/08:30am 21.8 20.8 15.6 68 3.8 SE 15 22 8 12 1018.4 - 0.0
22/08:00am 20.8 19.6 16.2 75 2.8 SE 17 24 9 13 1018.2 - 0.0
22/07:30am 19.6 19.2 16.1 80 2.1 SE 13 19 7 10 1018.0 - 0.0
22/07:00am 18.3 17.7 15.7 85 1.6 SSE 13 19 7 10 1017.8 - 0.0
22/06:30am 18.4 18.2 15.8 85 1.6 SSE 11 15 6 8 1017.2 - 0.0
22/06:00am 18.5 17.9 15.7 84 1.7 SE 13 19 7 10 1016.9 1014.6 0.0
22/05:30am 18.5 17.6 15.9 85 1.6 SE 15 20 8 11 1016.6 - 0.0
22/05:00am 18.3 18.1 15.7 85 1.6 SSE 11 15 6 8 1016.6 - 0.0
22/04:30am 18.3 18.1 15.7 85 1.6 SSE 11 17 6 9 1016.5 - 0.0
22/04:00am 18.4 17.6 16.0 86 1.5 SSE 15 20 8 11 1016.3 - 0.0
22/03:30am 18.3 17.4 15.9 86 1.5 SSE 15 19 8 10 1016.3 - 0.0
22/03:00am 17.9 18.1 15.7 87 1.3 S 9 13 5 7 1016.4 1014.1 0.0
22/02:30am 18.2 18.0 15.6 85 1.6 SSE 11 15 6 8 1016.6 - 0.0
22/02:00am 18.6 18.0 15.7 83 1.8 SSE 13 20 7 11 1016.8 - 0.0
22/01:30am 18.8 18.3 15.9 83 1.8 SE 13 17 7 9 1016.9 - 0.0
22/01:00am 18.6 18.1 15.8 84 1.7 SSE 13 19 7 10 1017.1 - 0.0
22/12:30am 18.6 18.8 15.7 83 1.8 SE 9 15 5 8 1017.2 - 0.0
22/12:00am 19.0 18.9 16.0 83 1.8 SE 11 17 6 9 1017.4 1015.2 0.0
 
Date/Time
EST
Temp
°C
App
Temp
°C
Dew
Point
°C
Rel
Hum
%
Delta-T
°C
Wind Press
QNH
hPa
Press
MSL
hPa
Rain since
9am
mm
Dir  Spd
km/h
Gust
km/h
Spd
kts
Gust
kts
21/11:30pm 18.8 19.5 16.0 84 1.7 SSE 7 13 4 7 1017.7 - 0.0
21/11:00pm 19.0 19.4 16.2 84 1.7 SE 9 15 5 8 1017.8 - 0.0
21/10:30pm 19.2 18.8 16.2 83 1.8 SSE 13 17 7 9 1017.8 - 0.0
21/10:00pm 19.3 17.8 16.3 83 1.8 SE 19 26 10 14 1017.6 - 0.0
21/09:30pm 19.5 17.5 16.5 83 1.8 SSE 22 30 12 16 1017.3 - 0.0
21/09:00pm 19.5 18.8 16.5 83 1.8 SSE 15 22 8 12 1017.4 1015.2 0.0
21/08:30pm 19.7 19.1 16.7 83 1.8 SSE 15 20 8 11 1017.2 - 0.0
21/08:00pm 20.1 19.9 16.7 81 2.1 SSE 13 20 7 11 1016.8 - 0.0
21/07:30pm 21.1 19.5 16.5 75 2.8 SE 20 28 11 15 1016.5 - 0.0
21/07:00pm 21.4 19.8 16.4 73 3.1 SE 20 30 11 16 1016.2 - 0.0
21/06:30pm 21.7 20.5 16.2 71 3.4 SSE 17 22 9 12 1015.7 - 0.0
21/06:00pm 22.6 21.1 16.2 67 4.0 SE 19 26 10 14 1015.4 1013.1 0.0
21/05:30pm 23.9 23.3 16.7 64 4.5 SE 15 22 8 12 1014.9 - 0.0
21/05:00pm 24.5 22.7 16.0 59 5.3 SE 20 30 11 16 1014.7 - 0.0
21/04:30pm 25.2 23.1 16.1 57 5.7 SE 22 30 12 16 1014.6 - 0.0
21/04:00pm 26.2 24.4 15.9 53 6.4 SE 20 28 11 15 1014.4 - 0.0
21/03:30pm 26.4 24.0 16.3 53 6.3 SSE 24 30 13 16 1014.3 - 0.0
21/03:00pm 27.2 25.8 16.5 52 6.8 SE 19 26 10 14 1014.1 1011.8 0.0
21/02:30pm 27.2 26.4 16.2 51 6.9 ESE 15 26 8 14 1014.2 - 0.0
21/02:00pm 27.1 25.5 16.1 51 6.9 ESE 19 26 10 14 1014.3 - 0.0
21/01:30pm 27.0 25.6 16.6 53 6.6 SE 19 26 10 14 1014.7 - 0.0
21/01:00pm 26.9 25.9 16.5 53 6.6 SE 17 24 9 13 1015.2 - 0.0
21/12:30pm 26.3 24.3 15.0 49 6.9 ESE 19 28 10 15 1015.7 - 0.0

Other Formats:

Comma delimited format used in spreadsheet applications
http://www.bom.gov.au/fwo/IDQ60801/IDQ60801.95286.axf

JavaScript Object Notation format (JSON) in row-major order
http://www.bom.gov.au/fwo/IDQ60801/IDQ60801.95286.json